Chiniak, Alaska
Current Conditions -  °F | °C
As of 11:53 PM on Tuesday 27 Jan 2015 (Local Time) from PADQ Reporting Station
Light Rain Light Rain  
Wind Chill: 27°   Ceiling: 2400
Heat Index: 38°   Visibility: 10mi
Dew Point: 33°   Wind: 24mph
Humidity: 83%   Direction: 40°NE
Pressure: 29.8"   Gusts: NA
Location:  57.454°N, 153.546°W
Report Text: PADQ 280853Z 04021KT 10SM -RA SCT019 BKN024 OVC035 03/01 A2980 RMK AO2 PK WND 04031/0839 SNE26 SLP093 P0000 60000 T00330006 400391022 51004
Loading
Personal Weather Stations






























Interactive Weather Map New forecast layout! Learn more

10-Day Weather Forecast

Advertisements
Track Severe Weather on mobile